Terminal Aerodrome Forecast
Issued by NWS

Home | Current Version | Previous Version | Text Only | Print | Product List | Glossary On
Versions: 1 2 3 4 5 6 7 8 9 10 11 12 13 14 15 16 17 18 19 20 21 22
000
FTUS41 KPBZ 160500 CCA
TAFFKL
TAF COR
KFKL 160548Z 1606/1706 01004KT 4SM BR BKN002 BKN008 OVC013
     FM161200 35005KT P6SM BKN015
     FM161600 34005KT P6SM BKN035
     FM162200 31004KT P6SM SKC
      AMD LTD TO CLD VIS AND WIND=

USA.gov is the U.S. government's official web portal to all federal, state and local government web resources and services.